Time;durP1;ratioP1;P1;durP2;ratioP2;P2;SDS_P1;SDS_P2;PMS_P1;PMS_P2;Temp;Humidity;BMP_temperature;BMP_pressure;BME280_temperature;BME280_humidity;BME280_pressure;Samples;Min_cycle;Max_cycle;Signal;HPM_P1;HPM_P2
2022/05/23 04:08:12;;;;;;;2.77;2.30;;;15.80;99.90;;;;;;4976618;28;20652;-68
2022/05/23 04:10:39;;;;;;;2.10;2.00;;;15.90;99.90;;;;;;4977040;28;20502;-68
2022/05/23 04:13:06;;;;;;;3.90;2.10;;;16.00;99.90;;;;;;4976086;28;20439;-69
2022/05/23 04:15:32;;;;;;;1.67;1.57;;;16.00;99.90;;;;;;4977877;28;21001;-68
2022/05/23 04:17:58;;;;;;;2.00;1.90;;;16.10;99.90;;;;;;4977477;28;20878;-69
2022/05/23 04:20:24;;;;;;;2.27;2.17;;;16.20;99.90;;;;;;4977186;28;20423;-69
2022/05/23 04:22:50;;;;;;;2.57;2.00;;;16.20;99.90;;;;;;4977047;28;20408;-67
2022/05/23 04:25:16;;;;;;;2.17;2.07;;;16.20;99.90;;;;;;4977190;28;20394;-68
2022/05/23 04:27:42;;;;;;;2.40;2.30;;;16.20;99.90;;;;;;4976815;28;20458;-69
2022/05/23 04:30:09;;;;;;;2.20;2.00;;;16.30;99.90;;;;;;4976587;28;20262;-68
2022/05/23 04:35:21;;;;;;;1.90;1.80;;;16.30;99.90;;;;;;4976760;28;20421;-68
2022/05/23 04:37:49;;;;;;;2.67;2.03;;;16.30;99.90;;;;;;4995549;28;20435;-69
2022/05/23 04:40:19;;;;;;;6.57;3.73;;;16.30;99.90;;;;;;4976899;28;20465;-69
2022/05/23 04:42:44;;;;;;;2.47;2.37;;;16.40;99.90;;;;;;4974935;28;20466;-71
2022/05/23 04:45:11;;;;;;;2.70;2.23;;;16.30;99.90;;;;;;4975338;28;20462;-68
2022/05/23 04:50:22;;;;;;;2.00;1.90;;;16.40;99.90;;;;;;4976690;28;20418;-68
2022/05/23 04:52:48;;;;;;;2.10;2.00;;;16.40;99.90;;;;;;4976729;28;20498;-68
2022/05/23 04:55:15;;;;;;;2.00;1.90;;;16.40;99.90;;;;;;4977283;28;20178;-69
2022/05/23 04:57:41;;;;;;;2.37;2.17;;;16.40;99.90;;;;;;4975370;28;20502;-68
2022/05/23 05:00:10;;;;;;;2.50;2.30;;;16.40;99.90;;;;;;4977006;28;20931;-69
2022/05/23 05:02:37;;;;;;;1.93;1.83;;;16.40;99.90;;;;;;4976532;28;20263;-66
2022/05/23 05:05:04;;;;;;;2.83;2.50;;;16.30;99.90;;;;;;4976835;28;20511;-68
2022/05/23 05:07:29;;;;;;;4.80;2.83;;;16.30;99.90;;;;;;4973519;28;20470;-68
2022/05/23 05:09:55;;;;;;;2.20;2.10;;;16.20;99.90;;;;;;4974657;28;20929;-68
2022/05/23 05:12:21;;;;;;;3.40;3.10;;;16.10;99.90;;;;;;4974519;28;20369;-68
2022/05/23 05:14:47;;;;;;;3.03;2.83;;;15.80;99.90;;;;;;4974511;28;20689;-62
2022/05/23 05:17:12;;;;;;;3.00;2.23;;;15.60;99.90;;;;;;4974336;28;20431;-67
2022/05/23 05:19:38;;;;;;;2.80;2.60;;;15.30;99.90;;;;;;4974411;28;20203;-66
2022/05/23 05:22:04;;;;;;;3.13;2.83;;;15.20;99.90;;;;;;4975398;28;20656;-66
2022/05/23 05:24:32;;;;;;;5.53;2.87;;;15.10;99.90;;;;;;4976154;28;20192;-66
2022/05/23 05:26:58;;;;;;;4.07;3.43;;;15.00;99.90;;;;;;4975824;28;20203;-65
2022/05/23 05:29:24;;;;;;;2.90;2.70;;;14.90;99.90;;;;;;4976328;28;20780;-67
2022/05/23 05:32:08;;;;;;;2.93;2.73;;;14.90;99.90;;;;;;4976442;28;20406;-66
2022/05/23 05:34:45;;;;;;;6.43;4.43;;;14.90;99.90;;;;;;4976474;28;20199;-67
2022/05/23 05:37:15;;;;;;;4.33;2.50;;;14.90;99.90;;;;;;4975873;28;20481;-66
2022/05/23 05:39:43;;;;;;;4.13;3.83;;;14.80;99.90;;;;;;4976372;28;20486;-66
2022/05/23 05:42:20;;;;;;;3.30;3.00;;;14.90;99.90;;;;;;4974550;28;20426;-67
2022/05/23 05:44:51;;;;;;;3.03;2.83;;;14.90;99.90;;;;;;4975900;28;20433;-66
2022/05/23 05:47:19;;;;;;;4.03;3.30;;;14.90;99.90;;;;;;4974598;28;20570;-66
2022/05/23 05:49:49;;;;;;;3.57;3.10;;;14.90;99.90;;;;;;4975848;28;20912;-66
2022/05/23 05:52:17;;;;;;;5.60;3.17;;;14.80;99.90;;;;;;4973427;28;20514;-65
2022/05/23 05:54:43;;;;;;;3.63;3.30;;;14.90;99.90;;;;;;4975238;28;20451;-65
2022/05/23 05:57:11;;;;;;;3.00;2.80;;;14.90;99.90;;;;;;4975876;28;20780;-64
2022/05/23 05:59:37;;;;;;;3.20;3.00;;;15.00;99.90;;;;;;4974381;28;20211;-64
2022/05/23 06:02:03;;;;;;;3.30;3.00;;;15.10;99.90;;;;;;4974045;28;20832;-67
2022/05/23 06:04:29;;;;;;;3.20;3.00;;;15.10;99.90;;;;;;4974377;28;20687;-65
2022/05/23 06:12:23;;;;;;;3.63;3.30;;;15.30;99.90;;;;;;4968939;28;20774;-65
2022/05/23 06:14:48;;;;;;;3.03;2.83;;;15.40;99.90;;;;;;4970415;28;20443;-66
2022/05/23 06:17:14;;;;;;;3.00;2.80;;;15.50;99.90;;;;;;4969500;28;20215;-69
2022/05/23 06:19:40;;;;;;;3.13;2.90;;;15.60;99.90;;;;;;4974781;28;20184;-68
2022/05/23 06:22:07;;;;;;;2.90;2.70;;;15.80;99.90;;;;;;4975089;28;20223;-69
2022/05/23 06:24:32;;;;;;;3.57;3.17;;;16.00;99.90;;;;;;4974938;28;20447;-68
2022/05/23 06:26:59;;;;;;;4.20;3.80;;;16.10;99.90;;;;;;4973825;28;20509;-68
2022/05/23 06:29:25;;;;;;;3.07;2.80;;;16.40;99.90;;;;;;4975117;28;20531;-68
2022/05/23 06:31:51;;;;;;;2.83;2.63;;;16.60;99.90;;;;;;4975049;28;20496;-68
2022/05/23 06:34:16;;;;;;;4.20;2.63;;;16.80;99.90;;;;;;4974811;28;20198;-68
2022/05/23 06:36:42;;;;;;;3.90;2.50;;;17.00;99.90;;;;;;4975234;28;20182;-69
2022/05/23 06:39:07;;;;;;;2.50;2.30;;;17.20;99.90;;;;;;4975052;28;20171;-69
2022/05/23 06:41:33;;;;;;;2.43;2.27;;;17.50;99.90;;;;;;4973786;28;20199;-66
2022/05/23 06:43:59;;;;;;;2.80;2.60;;;17.70;99.90;;;;;;4974384;28;20254;-67
2022/05/23 06:46:25;;;;;;;2.40;2.20;;;17.90;99.90;;;;;;4971636;28;20203;-67
2022/05/23 06:48:50;;;;;;;2.40;2.20;;;18.10;99.90;;;;;;4973636;28;20618;-66
2022/05/23 06:51:16;;;;;;;2.60;1.93;;;18.30;99.90;;;;;;4974074;28;20446;-67
2022/05/23 06:53:42;;;;;;;4.40;2.00;;;18.50;99.90;;;;;;4974202;28;20220;-69
2022/05/23 06:56:08;;;;;;;2.07;1.97;;;18.60;99.90;;;;;;4974363;28;20457;-69
2022/05/23 06:58:34;;;;;;;2.40;2.30;;;18.60;99.90;;;;;;4974782;28;20178;-66
2022/05/23 07:01:00;;;;;;;2.07;1.97;;;18.60;99.90;;;;;;4974386;28;20420;-67
2022/05/23 07:03:25;;;;;;;2.67;2.47;;;18.50;99.90;;;;;;4974177;28;20203;-67
2022/05/23 07:14:04;;;;;;;2.10;2.00;;;18.90;99.90;;;;;;4974102;28;20514;-67
2022/05/23 07:16:31;;;;;;;4.20;2.70;;;19.10;99.90;;;;;;4974162;28;20498;-69
2022/05/23 07:18:57;;;;;;;2.80;2.60;;;19.30;99.90;;;;;;4974536;28;20259;-67
2022/05/23 07:21:26;;;;;;;2.03;1.93;;;19.70;99.90;;;;;;4973998;28;20427;-68
2022/05/23 07:23:53;;;;;;;2.17;2.07;;;20.00;99.90;;;;;;4974071;28;20842;-67
2022/05/23 07:26:19;;;;;;;2.67;2.47;;;20.30;99.90;;;;;;4974252;28;20438;-67
2022/05/23 07:28:48;;;;;;;2.97;2.77;;;20.20;99.90;;;;;;4974119;28;20398;-68
2022/05/23 07:31:15;;;;;;;2.73;2.53;;;20.20;99.90;;;;;;4973871;28;20500;-67
2022/05/23 07:33:40;;;;;;;2.10;1.90;;;20.20;99.90;;;;;;4972640;28;20432;-68
2022/05/23 07:36:08;;;;;;;2.57;2.40;;;20.20;99.90;;;;;;4974735;28;20446;-68
2022/05/23 07:38:35;;;;;;;2.40;2.20;;;20.30;99.90;;;;;;4973929;28;20187;-69
2022/05/23 07:41:01;;;;;;;4.17;1.97;;;20.30;99.90;;;;;;4974420;28;20763;-67
2022/05/23 07:43:28;;;;;;;5.20;2.93;;;20.30;99.90;;;;;;4973921;28;20433;-65
2022/05/23 07:45:54;;;;;;;2.77;2.60;;;20.40;99.90;;;;;;4973607;28;20445;-70
2022/05/23 07:48:20;;;;;;;2.40;2.30;;;20.80;99.90;;;;;;4970678;28;20482;-68
2022/05/23 07:50:48;;;;;;;2.60;2.40;;;21.10;99.90;;;;;;4970860;28;20407;-70
2022/05/23 08:01:30;;;;;;;3.00;2.80;;;22.10;99.90;;;;;;4973281;28;20443;-68
2022/05/23 08:03:56;;;;;;;2.93;2.67;;;22.40;99.90;;;;;;4971611;28;20443;-70
2022/05/23 08:06:23;;;;;;;2.20;2.10;;;22.50;99.90;;;;;;4973799;28;20466;-68
2022/05/23 08:08:48;;;;;;;2.40;2.20;;;22.30;99.90;;;;;;4973141;28;20401;-67
2022/05/23 08:11:14;;;;;;;2.50;2.00;;;22.10;99.90;;;;;;4972733;28;20388;-69
2022/05/23 08:13:42;;;;;;;2.83;2.43;;;21.90;99.90;;;;;;4973746;28;20198;-70
2022/05/23 08:16:08;;;;;;;2.60;2.40;;;21.70;99.90;;;;;;4973971;28;20167;-69
2022/05/23 08:18:33;;;;;;;2.50;2.30;;;21.60;99.90;;;;;;4973630;28;20423;-70
2022/05/23 08:20:59;;;;;;;1.90;1.80;;;21.80;99.90;;;;;;4973945;28;20489;-70
2022/05/23 08:23:26;;;;;;;2.47;2.37;;;22.10;99.90;;;;;;4973667;28;20195;-71
2022/05/23 08:25:52;;;;;;;2.33;2.13;;;22.30;99.90;;;;;;4974135;28;20458;-70
2022/05/23 08:28:17;;;;;;;2.00;1.90;;;22.20;99.90;;;;;;4973713;28;20783;-71
2022/05/23 08:30:43;;;;;;;2.23;2.13;;;22.20;99.90;;;;;;4973876;28;20174;-71
2022/05/23 08:33:09;;;;;;;5.13;3.07;;;22.20;99.90;;;;;;4973284;28;20246;-72
2022/05/23 08:35:34;;;;;;;2.10;2.00;;;22.10;99.90;;;;;;4973506;28;20176;-69
2022/05/23 08:38:01;;;;;;;2.10;2.00;;;21.90;99.90;;;;;;4972658;28;20592;-70
2022/05/23 08:40:43;;;;;;;1.77;1.67;;;21.90;99.90;;;;;;4973668;28;20183;-70
2022/05/23 08:43:10;;;;;;;2.00;1.90;;;21.80;99.90;;;;;;4975846;28;20447;-71
2022/05/23 08:45:42;;;;;;;2.87;2.67;;;21.50;99.90;;;;;;4977470;28;20403;-70
2022/05/23 08:48:15;;;;;;;1.97;1.87;;;21.40;99.90;;;;;;4976967;28;20809;-70
2022/05/23 08:50:45;;;;;;;2.10;2.00;;;21.40;99.90;;;;;;4976807;28;20467;-71
2022/05/23 08:53:23;;;;;;;2.77;2.57;;;21.30;99.90;;;;;;4976825;28;20505;-70
2022/05/23 08:55:57;;;;;;;2.13;1.93;;;21.20;99.90;;;;;;4976564;28;20402;-70
2022/05/23 08:58:38;;;;;;;2.47;2.27;;;21.10;99.90;;;;;;4975751;28;20423;-70
2022/05/23 09:01:17;;;;;;;2.80;2.60;;;21.00;99.90;;;;;;4960363;28;20425;-71
2022/05/23 09:04:00;;;;;;;2.40;2.30;;;21.00;99.90;;;;;;4956846;29;20494;-71
2022/05/23 09:06:37;;;;;;;2.10;2.00;;;21.10;99.90;;;;;;4975218;28;20463;-71
2022/05/23 09:09:09;;;;;;;2.27;2.17;;;21.20;99.90;;;;;;4975467;28;20425;-71
2022/05/23 09:11:44;;;;;;;2.30;2.10;;;21.30;99.90;;;;;;4977089;28;20382;-70
2022/05/23 09:14:12;;;;;;;2.80;2.60;;;21.40;99.90;;;;;;4976126;28;20423;-70
2022/05/23 09:17:00;;;;;;;2.57;2.40;;;21.40;99.90;;;;;;4975969;28;20404;-71
2022/05/23 09:19:54;;;;;;;2.63;2.43;;;21.50;99.90;;;;;;4976144;28;20602;-71
2022/05/23 09:22:43;;;;;;;3.00;2.30;;;21.70;99.90;;;;;;4976599;28;20419;-70
2022/05/23 09:25:10;;;;;;;6.83;1.80;;;22.00;99.90;;;;;;4976628;28;20434;-70
2022/05/23 09:28:09;;;;;;;3.10;2.23;;;22.60;99.90;;;;;;4976083;28;20455;-71
2022/05/23 09:30:37;;;;;;;1.90;1.80;;;22.90;99.90;;;;;;4976593;28;20900;-71
2022/05/23 09:33:11;;;;;;;2.80;2.60;;;22.90;99.90;;;;;;4976073;28;20789;-71
2022/05/23 09:35:50;;;;;;;3.10;2.90;;;22.90;99.90;;;;;;4976294;28;20411;-70
2022/05/23 09:38:15;;;;;;;3.60;2.13;;;22.80;99.90;;;;;;4976012;28;20438;-70
2022/05/23 09:40:42;;;;;;;2.10;2.00;;;22.90;99.90;;;;;;4976194;28;20416;-69
2022/05/23 09:49:18;;;;;;;2.37;2.17;;;22.80;99.90;;;;;;4976163;28;20401;-70
2022/05/23 09:51:50;;;;;;;2.73;2.53;;;22.90;99.90;;;;;;4976114;28;20406;-71
2022/05/23 09:54:33;;;;;;;2.50;2.30;;;23.00;99.90;;;;;;4974975;28;20537;-71
2022/05/23 09:57:02;;;;;;;2.77;2.50;;;23.20;99.90;;;;;;4975780;28;20474;-70
2022/05/23 09:59:32;;;;;;;2.67;2.47;;;23.50;99.90;;;;;;4976085;28;20393;-71
2022/05/23 10:02:18;;;;;;;2.50;2.30;;;23.80;99.90;;;;;;4975712;28;20443;-72
2022/05/23 10:04:45;;;;;;;4.17;2.30;;;24.10;99.90;;;;;;4975723;28;20447;-71
2022/05/23 10:07:30;;;;;;;3.00;2.80;;;24.40;99.90;;;;;;4975625;28;20564;-70
2022/05/23 10:10:00;;;;;;;3.37;2.63;;;24.60;99.90;;;;;;4975408;28;20486;-71
2022/05/23 10:12:26;;;;;;;2.80;2.60;;;24.90;99.90;;;;;;4975157;28;20399;-72
2022/05/23 10:15:02;;;;;;;2.67;2.50;;;25.60;99.90;;;;;;4975735;28;20420;-71
2022/05/23 10:17:35;;;;;;;2.57;2.37;;;26.10;99.30;;;;;;4975607;28;20630;-72
2022/05/23 10:20:21;;;;;;;2.90;2.53;;;26.60;97.40;;;;;;4975551;28;20490;-72
2022/05/23 10:22:59;;;;;;;5.63;3.23;;;27.10;97.10;;;;;;4974911;28;20391;-70
2022/05/23 10:25:29;;;;;;;3.57;3.23;;;27.40;96.40;;;;;;4975616;28;20366;-71
2022/05/23 10:27:59;;;;;;;2.90;2.70;;;27.40;95.70;;;;;;4975575;28;20813;-72
2022/05/23 10:30:31;;;;;;;2.80;2.60;;;27.40;95.90;;;;;;4975204;28;20390;-71
2022/05/23 10:33:04;;;;;;;2.87;2.57;;;27.10;95.80;;;;;;4974674;28;20404;-73
2022/05/23 10:35:50;;;;;;;3.33;3.03;;;26.80;97.00;;;;;;4975290;28;20374;-70
2022/05/23 10:44:26;;;;;;;3.30;2.50;;;25.80;98.10;;;;;;4974816;28;20455;-69
2022/05/23 10:47:12;;;;;;;2.50;2.27;;;25.70;98.70;;;;;;4955901;28;20798;-69
2022/05/23 10:49:48;;;;;;;3.43;3.13;;;25.70;98.70;;;;;;4959064;28;20713;-70
2022/05/23 10:52:49;;;;;;;3.20;3.00;;;25.70;98.70;;;;;;4974394;28;20407;-70
2022/05/23 10:55:32;;;;;;;4.53;3.00;;;25.50;99.40;;;;;;4974151;28;20770;-71
2022/05/23 10:58:11;;;;;;;3.40;3.10;;;25.60;99.10;;;;;;4975083;28;20754;-70
2022/05/23 11:00:52;;;;;;;3.70;3.40;;;25.40;98.80;;;;;;4973386;28;20431;-71
2022/05/23 11:03:28;;;;;;;6.37;3.87;;;25.20;98.70;;;;;;4974274;28;20538;-72
2022/05/23 11:06:08;;;;;;;3.43;3.10;;;25.00;99.20;;;;;;4973613;28;20430;-69
2022/05/23 11:09:05;;;;;;;4.47;4.07;;;24.70;99.40;;;;;;4974528;28;20416;-69
2022/05/23 11:11:53;;;;;;;2.90;2.70;;;24.50;99.70;;;;;;4974589;28;20952;-68
2022/05/23 11:14:22;;;;;;;5.10;4.70;;;24.30;99.80;;;;;;4972502;28;20921;-68
2022/05/23 11:17:08;;;;;;;3.73;3.00;;;24.00;99.90;;;;;;4974537;28;20726;-69
2022/05/23 11:19:55;;;;;;;3.27;2.97;;;23.80;99.90;;;;;;4974529;28;20453;-69
2022/05/23 11:22:28;;;;;;;4.93;4.10;;;23.50;99.90;;;;;;4973714;28;20497;-70
2022/05/23 11:25:29;;;;;;;6.57;5.10;;;23.10;99.90;;;;;;4974504;28;20499;-69
2022/05/23 11:34:06;;;;;;;7.00;4.00;;;21.50;99.90;;;;;;4974011;28;20442;-70
2022/05/23 11:36:44;;;;;;;4.17;3.63;;;21.10;99.90;;;;;;4974571;28;20882;-71
2022/05/23 11:39:39;;;;;;;4.50;4.00;;;20.70;99.90;;;;;;4969957;28;20854;-76
2022/05/23 11:42:11;;;;;;;3.30;3.03;;;20.40;99.90;;;;;;4972173;28;20415;-75
2022/05/23 11:44:48;;;;;;;8.80;5.10;;;20.10;99.90;;;;;;4974315;28;20940;-73
2022/05/23 11:47:25;;;;;;;5.10;3.50;;;20.00;99.90;;;;;;4974065;28;20457;-69
2022/05/23 11:50:17;;;;;;;3.90;3.50;;;19.80;99.90;;;;;;4973736;28;20378;-70
2022/05/23 11:52:48;;;;;;;4.70;3.73;;;19.60;99.90;;;;;;4960195;28;20482;-69
2022/05/23 11:56:03;;;;;;;3.30;3.00;;;19.60;99.90;;;;;;4974252;28;20396;-71
2022/05/23 11:58:42;;;;;;;2.97;2.60;;;19.60;99.90;;;;;;4957239;28;20424;-68
2022/05/23 12:01:11;;;;;;;3.47;2.80;;;19.50;99.90;;;;;;4973750;28;20436;-68
2022/05/23 12:03:55;;;;;;;3.67;2.77;;;19.50;99.90;;;;;;4973095;28;20446;-71
2022/05/23 12:06:24;;;;;;;2.77;2.03;;;19.40;99.90;;;;;;4973521;28;20417;-70
2022/05/23 12:09:23;;;;;;;3.63;2.70;;;19.30;99.90;;;;;;4973855;28;20398;-70
2022/05/23 12:12:13;;;;;;;2.70;2.50;;;19.20;99.90;;;;;;4973828;28;20390;-71
2022/05/23 12:14:59;;;;;;;1.90;1.60;;;19.10;99.90;;;;;;4973696;28;20466;-68
2022/05/23 12:17:26;;;;;;;2.10;2.00;;;19.00;99.90;;;;;;4951678;28;20524;-71
2022/05/23 12:19:55;;;;;;;3.10;1.60;;;18.90;99.90;;;;;;4938583;29;20434;-70
2022/05/23 12:22:36;;;;;;;2.70;1.70;;;18.70;99.90;;;;;;4936978;29;20440;-70
2022/05/23 12:25:07;;;;;;;2.50;2.07;;;18.40;99.90;;;;;;4920946;29;20418;-70
2022/05/23 12:28:01;;;;;;;3.60;1.80;;;18.00;99.90;;;;;;4936945;29;20501;-72
2022/05/23 12:30:26;;;;;;;3.53;2.50;;;17.70;99.90;;;;;;4923503;29;20427;-72
2022/05/23 12:32:59;;;;;;;1.90;1.80;;;17.50;99.90;;;;;;4949006;29;20433;-70
2022/05/23 12:35:45;;;;;;;2.57;1.60;;;17.40;99.90;;;;;;4936818;29;20189;-71
2022/05/23 12:38:47;;;;;;;1.93;1.67;;;17.30;99.90;;;;;;4939025;29;20444;-75
2022/05/23 12:41:37;;;;;;;6.30;2.83;;;17.20;99.90;;;;;;4922146;29;20531;-74
2022/05/23 12:44:08;;;;;;;4.10;1.80;;;17.20;99.90;;;;;;4936262;29;20453;-74
2022/05/23 12:47:18;;;;;;;3.77;1.80;;;17.20;99.90;;;;;;4954232;29;20558;-76
2022/05/23 12:50:14;;;;;;;4.20;3.13;;;17.30;99.90;;;;;;4937959;29;20436;-75
2022/05/23 12:53:02;;;;;;;4.67;2.27;;;17.40;99.90;;;;;;4946909;29;20453;-75
2022/05/23 12:56:16;;;;;;;2.30;2.10;;;17.60;99.90;;;;;;4972960;28;20486;-72
2022/05/23 12:59:00;;;;;;;2.10;2.00;;;17.80;99.90;;;;;;4936392;29;20418;-74
2022/05/23 13:01:30;;;;;;;4.27;3.17;;;18.00;99.90;;;;;;4936279;29;20440;-73
2022/05/23 13:04:20;;;;;;;2.03;1.93;;;18.10;99.90;;;;;;4936208;29;20469;-73
2022/05/23 13:07:10;;;;;;;1.87;1.77;;;18.30;99.90;;;;;;4920448;29;20474;-71
2022/05/23 13:10:01;;;;;;;2.10;2.00;;;18.60;99.90;;;;;;4936695;29;20423;-73
2022/05/23 13:12:44;;;;;;;2.97;2.10;;;18.90;99.90;;;;;;4935809;29;20437;-74
2022/05/23 13:15:10;;;;;;;2.00;1.90;;;19.30;99.90;;;;;;4936311;29;20442;-73
2022/05/23 13:17:40;;;;;;;4.07;1.80;;;19.50;99.90;;;;;;4936077;29;20417;-75
2022/05/23 13:23:23;;;;;;;1.73;1.63;;;19.90;99.90;;;;;;4935876;29;20428;-73
2022/05/23 13:25:49;;;;;;;1.73;1.63;;;20.10;99.90;;;;;;4946693;29;20774;-73
2022/05/23 13:28:18;;;;;;;1.63;1.50;;;20.30;99.90;;;;;;4954116;28;20962;-74
2022/05/23 13:30:50;;;;;;;1.80;1.60;;;20.50;99.90;;;;;;4947941;28;20435;-74
2022/05/23 13:33:26;;;;;;;1.40;1.30;;;20.60;99.90;;;;;;4938663;28;20429;-75
2022/05/23 13:36:04;;;;;;;1.60;1.50;;;20.70;99.90;;;;;;4976688;28;20400;-71
2022/05/23 13:38:32;;;;;;;2.97;2.10;;;20.80;99.90;;;;;;4976742;28;20419;-72
2022/05/23 13:41:03;;;;;;;1.60;1.47;;;21.00;99.90;;;;;;4976107;28;20426;-73
2022/05/23 13:43:47;;;;;;;1.80;1.70;;;21.20;99.90;;;;;;4975928;28;20796;-73
2022/05/23 13:46:40;;;;;;;1.50;1.40;;;21.30;99.90;;;;;;4976096;28;20429;-74
2022/05/23 13:49:22;;;;;;;2.40;1.47;;;21.50;99.90;;;;;;4975914;28;20434;-71
2022/05/23 13:51:57;;;;;;;3.67;1.57;;;21.60;99.90;;;;;;4976266;28;20404;-74
2022/05/23 13:54:32;;;;;;;1.50;1.40;;;21.60;99.90;;;;;;4982158;28;20450;-74
2022/05/23 13:57:05;;;;;;;1.63;1.30;;;21.70;99.90;;;;;;4995348;28;20418;-73
2022/05/23 13:59:38;;;;;;;1.53;1.13;;;21.70;99.90;;;;;;4976684;28;20428;-73
2022/05/23 14:02:11;;;;;;;2.03;1.30;;;21.70;99.90;;;;;;4976001;28;20414;-73
2022/05/23 14:04:39;;;;;;;1.40;1.30;;;21.80;99.90;;;;;;4976715;28;20823;-75
2022/05/23 14:07:12;;;;;;;2.67;2.03;;;21.90;99.90;;;;;;4956553;28;20443;-73
2022/05/23 14:09:44;;;;;;;1.20;1.10;;;22.00;99.90;;;;;;4975250;28;20423;-73
2022/05/23 14:12:12;;;;;;;3.90;1.37;;;22.10;99.90;;;;;;4975696;28;20813;-73
2022/05/23 14:15:00;;;;;;;4.10;1.37;;;22.20;99.90;;;;;;4975888;28;20481;-74
2022/05/23 14:17:32;;;;;;;5.73;1.40;;;22.30;99.90;;;;;;4975313;28;20437;-74
2022/05/23 14:20:13;;;;;;;4.33;1.53;;;22.30;99.90;;;;;;4978020;28;20426;-73
2022/05/23 14:22:39;;;;;;;1.60;1.50;;;22.40;99.90;;;;;;4975256;28;20418;-74
2022/05/23 14:25:20;;;;;;;2.90;2.30;;;22.50;99.90;;;;;;4975200;28;20422;-72
2022/05/23 14:27:49;;;;;;;1.97;1.77;;;22.60;99.90;;;;;;4975360;28;20233;-73
2022/05/23 14:30:23;;;;;;;4.30;1.70;;;22.70;99.90;;;;;;4975448;28;20380;-73
2022/05/23 14:32:55;;;;;;;4.20;2.77;;;22.70;99.90;;;;;;4975054;28;20460;-73
2022/05/23 14:35:25;;;;;;;2.40;2.20;;;22.90;99.90;;;;;;4978684;28;20418;-72
2022/05/23 14:37:53;;;;;;;1.73;1.63;;;22.90;99.90;;;;;;4977671;28;20723;-73
2022/05/23 14:40:41;;;;;;;1.70;1.60;;;23.00;99.90;;;;;;4975336;28;20385;-73
2022/05/23 14:43:09;;;;;;;1.67;1.40;;;23.10;99.90;;;;;;4984225;28;20627;-72
2022/05/23 14:45:49;;;;;;;1.53;1.40;;;23.20;99.90;;;;;;4994480;28;20411;-71
2022/05/23 14:48:21;;;;;;;1.23;1.20;;;23.40;99.90;;;;;;4974804;28;20792;-71
2022/05/23 14:51:09;;;;;;;1.80;1.10;;;23.50;99.90;;;;;;4975223;28;20400;-73
2022/05/23 14:56:49;;;;;;;1.90;1.80;;;23.60;99.90;;;;;;4973367;28;20614;-74
2022/05/23 15:02:05;;;;;;;2.53;1.40;;;23.50;99.90;;;;;;4974294;28;20417;-71
2022/05/23 15:04:32;;;;;;;1.50;1.40;;;23.40;99.90;;;;;;4974618;28;20897;-70
2022/05/23 15:07:00;;;;;;;2.27;1.60;;;23.30;99.90;;;;;;4974393;28;20803;-73
2022/05/23 15:09:27;;;;;;;2.50;2.23;;;23.20;99.90;;;;;;4975801;28;20485;-72
2022/05/23 15:11:54;;;;;;;1.60;1.50;;;23.20;99.90;;;;;;4974768;28;20923;-73
2022/05/23 15:14:22;;;;;;;3.10;2.80;;;23.20;99.90;;;;;;4984426;28;20237;-72
2022/05/23 15:16:48;;;;;;;1.67;1.57;;;23.20;99.90;;;;;;4986582;28;20434;-72
2022/05/23 15:19:17;;;;;;;1.43;1.33;;;23.20;99.90;;;;;;4974429;28;20832;-71
2022/05/23 15:21:44;;;;;;;4.30;1.80;;;23.20;99.90;;;;;;4974702;28;20179;-72
2022/05/23 15:24:11;;;;;;;1.60;1.50;;;23.30;99.90;;;;;;4974868;28;20511;-71
2022/05/23 15:26:40;;;;;;;2.17;1.97;;;23.40;99.90;;;;;;4973839;28;20412;-71
2022/05/23 15:29:08;;;;;;;2.23;1.90;;;23.50;99.90;;;;;;4973834;28;20438;-73
2022/05/23 15:31:40;;;;;;;2.97;1.33;;;23.50;99.90;;;;;;4974536;28;20414;-70
2022/05/23 15:34:06;;;;;;;2.40;1.60;;;23.50;99.90;;;;;;4973989;28;20773;-72
2022/05/23 15:36:36;;;;;;;1.80;1.70;;;23.40;99.90;;;;;;4981868;28;20425;-73
2022/05/23 15:39:02;;;;;;;2.57;2.37;;;23.40;99.90;;;;;;4972329;28;20434;-71
2022/05/23 15:41:28;;;;;;;3.03;2.30;;;23.30;99.90;;;;;;4971791;28;20817;-71
2022/05/23 15:43:55;;;;;;;1.53;1.43;;;23.30;99.90;;;;;;4972064;28;20459;-73
2022/05/23 15:46:23;;;;;;;5.13;1.70;;;23.40;99.90;;;;;;4973013;28;20166;-73
2022/05/23 15:48:49;;;;;;;2.90;1.67;;;23.30;99.90;;;;;;4973828;28;20418;-71
2022/05/23 15:51:16;;;;;;;1.57;1.47;;;23.40;99.90;;;;;;4975133;28;20393;-72
2022/05/23 15:53:43;;;;;;;3.60;1.57;;;23.30;99.90;;;;;;4977619;28;20186;-70
2022/05/23 15:56:10;;;;;;;1.63;1.50;;;23.30;99.90;;;;;;4996054;28;20428;-70
2022/05/23 15:58:39;;;;;;;1.67;1.57;;;23.20;99.90;;;;;;4980568;28;20765;-70
2022/05/23 16:01:11;;;;;;;2.23;1.80;;;23.10;99.90;;;;;;4977950;28;20387;-72
2022/05/23 16:03:37;;;;;;;1.40;1.30;;;23.10;99.90;;;;;;4994711;28;20439;-71
2022/05/23 16:06:02;;;;;;;1.40;1.30;;;22.90;99.90;;;;;;4984789;28;20436;-69
2022/05/23 16:08:29;;;;;;;1.97;1.73;;;22.90;99.90;;;;;;4977712;28;20476;-67
2022/05/23 16:11:20;;;;;;;3.80;2.20;;;22.70;99.90;;;;;;4977945;28;20531;-71
2022/05/23 16:13:46;;;;;;;2.20;1.83;;;22.60;99.90;;;;;;4994097;28;21048;-70
2022/05/23 16:16:13;;;;;;;1.70;1.60;;;22.50;99.90;;;;;;4984963;28;20402;-69
2022/05/23 16:18:40;;;;;;;1.20;1.10;;;22.40;99.90;;;;;;4977680;28;20480;-69
2022/05/23 16:21:06;;;;;;;2.50;1.50;;;22.30;99.90;;;;;;4977640;28;20891;-71
2022/05/23 16:23:34;;;;;;;2.10;1.40;;;22.20;99.90;;;;;;4988566;28;20454;-74
2022/05/23 16:26:00;;;;;;;6.93;2.20;;;22.20;99.90;;;;;;4982112;28;20416;-69
2022/05/23 16:28:26;;;;;;;2.83;1.97;;;22.00;99.90;;;;;;4982095;28;20467;-71
2022/05/23 16:30:52;;;;;;;1.47;1.30;;;21.60;99.90;;;;;;4977505;28;20718;-70
2022/05/23 16:38:47;;;;;;;1.90;1.80;;;20.80;99.90;;;;;;4958304;29;20771;-69
2022/05/23 16:41:14;;;;;;;2.67;1.60;;;20.50;99.90;;;;;;4958265;28;20412;-73
2022/05/23 16:43:40;;;;;;;2.67;1.47;;;20.30;99.90;;;;;;4959481;28;20417;-72
2022/05/23 16:46:06;;;;;;;5.80;1.77;;;20.00;99.90;;;;;;4975788;28;20916;-70
2022/05/23 16:48:32;;;;;;;4.83;2.03;;;19.70;99.90;;;;;;4967413;28;20481;-69
2022/05/23 16:51:01;;;;;;;1.40;1.30;;;19.50;99.90;;;;;;4987007;28;20428;-71
2022/05/23 16:53:28;;;;;;;2.60;2.10;;;19.30;99.90;;;;;;4994658;28;20448;-72
2022/05/23 16:55:53;;;;;;;4.00;1.33;;;19.10;99.90;;;;;;4996171;28;20406;-73
2022/05/23 16:58:19;;;;;;;3.37;2.10;;;19.10;99.90;;;;;;4981769;28;20422;-71
2022/05/23 17:00:45;;;;;;;1.50;1.40;;;19.00;99.90;;;;;;4977146;28;20187;-69
2022/05/23 17:03:12;;;;;;;2.00;1.80;;;18.90;99.90;;;;;;4976323;28;20225;-69
2022/05/23 17:05:38;;;;;;;4.93;1.63;;;18.90;99.90;;;;;;4977121;28;20170;-70
2022/05/23 17:08:04;;;;;;;2.30;1.20;;;18.80;99.90;;;;;;4979283;28;20442;-71
2022/05/23 17:10:30;;;;;;;2.87;1.83;;;18.70;99.90;;;;;;4976744;28;20420;-69
2022/05/23 17:12:56;;;;;;;2.67;2.23;;;18.70;99.90;;;;;;4976004;28;20434;-68
2022/05/23 17:15:22;;;;;;;2.70;1.33;;;18.60;99.90;;;;;;4976884;28;20810;-71
2022/05/23 17:17:47;;;;;;;1.30;1.20;;;18.60;99.90;;;;;;4977199;28;20432;-73
2022/05/23 17:20:15;;;;;;;2.40;1.83;;;18.60;99.90;;;;;;4976684;28;20175;-71
2022/05/23 17:22:41;;;;;;;1.70;1.60;;;18.50;99.90;;;;;;4976672;28;20257;-72
2022/05/23 17:25:07;;;;;;;2.33;2.20;;;18.40;99.90;;;;;;4975080;28;20949;-74
2022/05/23 17:27:33;;;;;;;1.80;1.70;;;18.40;99.90;;;;;;4974814;28;20205;-70
2022/05/23 17:29:59;;;;;;;3.73;2.47;;;18.40;99.90;;;;;;4977558;28;20416;-74
2022/05/23 17:32:25;;;;;;;3.43;3.10;;;18.40;99.90;;;;;;4976195;28;20421;-72
2022/05/23 17:34:50;;;;;;;3.00;2.70;;;18.30;99.90;;;;;;4975292;28;20437;-68
2022/05/23 17:37:16;;;;;;;1.57;1.47;;;18.30;99.90;;;;;;4983579;28;20268;-71
2022/05/23 17:39:41;;;;;;;1.77;1.50;;;18.30;99.90;;;;;;4976498;28;20260;-72
2022/05/23 17:42:07;;;;;;;4.13;1.40;;;18.30;99.90;;;;;;4976224;28;20501;-71
2022/05/23 17:44:33;;;;;;;3.60;1.70;;;18.30;99.90;;;;;;4982248;28;20205;-69
2022/05/23 17:47:01;;;;;;;1.40;1.30;;;18.30;99.90;;;;;;4981548;28;20685;-69
2022/05/23 17:49:27;;;;;;;2.90;1.50;;;18.30;99.90;;;;;;4976026;28;20522;-69
2022/05/23 17:51:52;;;;;;;1.70;1.50;;;18.30;99.90;;;;;;4976158;28;20405;-70
2022/05/23 17:54:18;;;;;;;3.53;1.97;;;18.40;99.90;;;;;;4975423;28;20469;-71
2022/05/23 17:56:44;;;;;;;1.17;1.17;;;18.40;99.90;;;;;;4983524;28;20212;-73
2022/05/23 17:59:09;;;;;;;1.90;1.33;;;18.50;99.90;;;;;;4995440;28;20176;-70
2022/05/23 18:01:35;;;;;;;1.83;1.73;;;18.50;99.90;;;;;;4995348;28;20544;-71
2022/05/23 18:04:01;;;;;;;1.33;1.23;;;18.60;99.90;;;;;;4980022;28;20230;-67
2022/05/23 18:06:28;;;;;;;1.83;1.73;;;18.70;99.90;;;;;;4980741;28;20187;-67
2022/05/23 18:08:53;;;;;;;1.80;1.33;;;18.70;99.90;;;;;;4995134;28;20480;-67
2022/05/23 18:11:19;;;;;;;2.53;1.47;;;18.90;99.90;;;;;;4993972;28;20414;-66
2022/05/23 18:19:21;;;;;;;1.13;1.10;;;19.00;99.90;;;;;;4995099;28;20418;-67
2022/05/23 18:21:49;;;;;;;1.63;1.53;;;19.10;99.90;;;;;;4993868;28;20430;-71
2022/05/23 18:24:15;;;;;;;1.53;1.43;;;19.10;99.90;;;;;;4977972;28;20412;-68